Time;durP1;ratioP1;P1;durP2;ratioP2;P2;SDS_P1;SDS_P2;PMS_P1;PMS_P2;Temp;Humidity;BMP_temperature;BMP_pressure;BME280_temperature;BME280_humidity;BME280_pressure;Samples;Min_cycle;Max_cycle;Signal;HPM_P1;HPM_P2
2023/08/01 00:02:25;;;;;;;14.98;7.00;;;16.00;99.90;;;;;;5114338;27;20043;-66
2023/08/01 00:04:51;;;;;;;12.57;7.03;;;16.10;99.90;;;;;;5112737;27;20083;-66
2023/08/01 00:07:16;;;;;;;17.25;7.50;;;16.00;99.90;;;;;;5113689;27;20047;-66
2023/08/01 00:09:42;;;;;;;11.82;6.22;;;16.10;99.90;;;;;;5119859;27;20047;-65
2023/08/01 00:12:08;;;;;;;11.95;6.78;;;16.00;99.90;;;;;;5120504;27;20042;-66
2023/08/01 00:14:33;;;;;;;14.45;6.72;;;16.10;99.90;;;;;;5126003;27;20054;-66
2023/08/01 00:16:59;;;;;;;13.95;6.57;;;16.00;99.90;;;;;;5126552;27;20069;-66
2023/08/01 00:19:24;;;;;;;13.25;6.78;;;16.00;99.90;;;;;;5120243;27;20042;-66
2023/08/01 00:21:50;;;;;;;14.90;7.32;;;16.00;99.90;;;;;;5123456;27;20493;-67
2023/08/01 00:24:16;;;;;;;13.30;6.47;;;16.00;99.90;;;;;;5125373;27;20457;-67
2023/08/01 00:26:41;;;;;;;13.65;6.55;;;16.00;99.90;;;;;;5109864;27;20102;-66
2023/08/01 00:29:07;;;;;;;15.90;7.30;;;16.00;99.90;;;;;;5137044;27;20034;-66
2023/08/01 00:31:33;;;;;;;11.10;6.20;;;16.00;99.90;;;;;;5123165;27;20081;-67
2023/08/01 00:33:58;;;;;;;14.82;6.85;;;16.00;99.90;;;;;;5104998;27;20079;-66
2023/08/01 00:36:24;;;;;;;14.93;5.95;;;16.00;99.90;;;;;;5118449;27;20070;-66
2023/08/01 00:38:50;;;;;;;9.82;6.07;;;16.00;99.90;;;;;;5122728;27;20486;-66
2023/08/01 00:41:15;;;;;;;11.20;5.70;;;16.00;99.90;;;;;;5133460;27;20042;-66
2023/08/01 00:43:41;;;;;;;11.68;5.75;;;15.90;99.90;;;;;;5127298;27;20052;-66
2023/08/01 00:46:08;;;;;;;12.68;5.68;;;15.90;99.90;;;;;;5125794;27;21492;-66
2023/08/01 00:48:34;;;;;;;16.60;6.13;;;15.90;99.90;;;;;;5118539;27;21598;-66
2023/08/01 00:51:04;;;;;;;13.20;5.90;;;15.90;99.90;;;;;;5120479;27;20039;-66
2023/08/01 00:53:31;;;;;;;14.55;5.93;;;15.90;99.90;;;;;;5122357;27;20429;-66
2023/08/01 00:55:58;;;;;;;11.13;5.68;;;15.90;99.90;;;;;;5123142;27;20050;-65
2023/08/01 00:58:23;;;;;;;9.98;4.65;;;15.90;99.90;;;;;;5123748;27;20487;-66
2023/08/01 01:00:49;;;;;;;12.20;5.20;;;15.90;99.90;;;;;;5099116;27;20063;-66
2023/08/01 01:03:16;;;;;;;9.85;5.10;;;15.80;99.90;;;;;;5136819;27;20042;-65
2023/08/01 01:06:09;;;;;;;16.55;4.88;;;15.80;99.90;;;;;;5118219;27;20050;-66
2023/08/01 01:08:34;;;;;;;13.52;4.85;;;15.80;99.90;;;;;;5122545;27;20033;-66
2023/08/01 01:11:00;;;;;;;11.95;4.85;;;15.80;99.90;;;;;;5123535;27;20034;-66
2023/08/01 01:13:26;;;;;;;10.40;4.65;;;15.80;99.90;;;;;;5123171;27;20046;-66
2023/08/01 01:15:52;;;;;;;8.70;4.82;;;15.80;99.90;;;;;;5128213;27;20063;-65
2023/08/01 01:18:18;;;;;;;11.32;5.03;;;15.80;99.90;;;;;;5122996;27;20141;-66
2023/08/01 01:20:43;;;;;;;9.23;4.45;;;15.80;99.90;;;;;;5122808;27;20054;-66
2023/08/01 01:23:10;;;;;;;15.98;5.15;;;15.80;99.90;;;;;;5141162;27;20393;-66
2023/08/01 01:25:38;;;;;;;14.98;5.15;;;15.80;99.90;;;;;;5123726;27;20066;-66
2023/08/01 01:28:05;;;;;;;10.88;5.35;;;15.80;99.90;;;;;;5125828;27;20039;-66
2023/08/01 01:30:35;;;;;;;10.55;5.90;;;15.80;99.90;;;;;;5135342;27;20047;-67
2023/08/01 01:33:01;;;;;;;12.20;5.43;;;15.80;99.90;;;;;;5135228;27;20039;-67
2023/08/01 01:35:27;;;;;;;11.55;5.30;;;15.80;99.90;;;;;;5126266;27;20042;-66
2023/08/01 01:37:52;;;;;;;10.02;5.28;;;15.80;99.90;;;;;;5128052;27;20400;-66
2023/08/01 01:40:18;;;;;;;11.15;5.82;;;15.80;99.90;;;;;;5117989;27;20042;-67
2023/08/01 01:42:44;;;;;;;14.40;5.45;;;15.80;99.90;;;;;;5142987;27;20046;-66
2023/08/01 01:45:10;;;;;;;12.93;5.10;;;15.80;99.90;;;;;;5127791;27;20050;-66
2023/08/01 01:47:35;;;;;;;11.68;5.45;;;15.80;99.90;;;;;;5125070;27;20042;-67
2023/08/01 01:50:01;;;;;;;10.82;5.05;;;15.80;99.90;;;;;;5133928;27;20042;-66
2023/08/01 01:52:26;;;;;;;15.52;5.60;;;15.80;99.90;;;;;;5124530;27;20909;-66
2023/08/01 01:54:52;;;;;;;11.93;4.82;;;15.70;99.90;;;;;;5119809;27;20118;-66
2023/08/01 01:57:18;;;;;;;11.32;4.88;;;15.70;99.90;;;;;;5122366;27;20416;-66
2023/08/01 01:59:43;;;;;;;10.38;4.70;;;15.70;99.90;;;;;;5128171;27;20042;-66
2023/08/01 02:02:09;;;;;;;10.02;4.45;;;15.70;99.90;;;;;;5125584;27;20027;-65
2023/08/01 02:04:34;;;;;;;9.63;4.20;;;15.70;99.90;;;;;;5119326;27;20042;-66
2023/08/01 02:07:00;;;;;;;9.50;4.50;;;15.70;99.90;;;;;;5122708;27;20030;-67
2023/08/01 02:09:25;;;;;;;8.30;4.40;;;15.70;99.90;;;;;;5123191;27;20489;-66
2023/08/01 02:11:51;;;;;;;12.38;4.22;;;15.70;99.90;;;;;;5124492;27;20046;-66
2023/08/01 02:14:17;;;;;;;11.98;4.07;;;15.70;99.90;;;;;;5143949;27;20035;-67
2023/08/01 02:16:42;;;;;;;10.30;4.55;;;15.70;99.90;;;;;;5122848;27;20114;-67
2023/08/01 02:19:08;;;;;;;8.00;3.63;;;15.70;99.90;;;;;;5123509;27;20382;-66
2023/08/01 02:21:34;;;;;;;9.27;3.85;;;15.70;99.90;;;;;;5120406;27;20053;-67
2023/08/01 02:23:59;;;;;;;14.82;4.53;;;15.70;99.90;;;;;;5124247;27;20041;-67
2023/08/01 02:26:25;;;;;;;10.68;4.45;;;15.60;99.90;;;;;;5122347;27;20039;-66
2023/08/01 02:28:50;;;;;;;10.20;4.80;;;15.60;99.90;;;;;;5122399;27;20047;-66
2023/08/01 02:31:16;;;;;;;8.98;4.18;;;15.60;99.90;;;;;;5139182;27;20131;-66
2023/08/01 02:33:42;;;;;;;14.73;4.03;;;15.50;99.90;;;;;;5119987;27;20031;-66
2023/08/01 02:36:08;;;;;;;11.98;4.05;;;15.50;99.90;;;;;;5137861;27;20370;-66
2023/08/01 02:38:33;;;;;;;10.45;4.25;;;15.50;99.90;;;;;;5114462;27;20046;-66
2023/08/01 02:40:59;;;;;;;9.73;3.83;;;15.40;99.90;;;;;;5129834;27;20492;-66
2023/08/01 02:43:25;;;;;;;11.35;4.10;;;15.40;99.90;;;;;;5125587;27;20062;-66
2023/08/01 02:45:50;;;;;;;10.45;4.10;;;15.40;99.90;;;;;;5120645;27;20042;-65
2023/08/01 02:48:16;;;;;;;13.63;4.45;;;15.40;99.90;;;;;;5099609;27;20054;-66
2023/08/01 02:50:42;;;;;;;10.70;3.50;;;15.30;99.90;;;;;;5123401;27;20049;-66
2023/08/01 02:53:08;;;;;;;12.00;4.45;;;15.30;99.90;;;;;;5122344;27;20035;-66
2023/08/01 02:55:33;;;;;;;8.43;3.80;;;15.30;99.90;;;;;;5122023;27;20121;-67
2023/08/01 02:57:59;;;;;;;12.80;4.70;;;15.30;99.90;;;;;;5130125;27;20043;-65
2023/08/01 03:00:25;;;;;;;13.55;4.10;;;15.20;99.90;;;;;;5123091;27;20038;-66
2023/08/01 03:02:51;;;;;;;12.27;4.13;;;15.20;99.90;;;;;;5121020;27;20374;-67
2023/08/01 03:05:17;;;;;;;14.30;4.63;;;15.20;99.90;;;;;;5119552;27;20075;-66
2023/08/01 03:07:42;;;;;;;12.68;4.80;;;15.10;99.90;;;;;;5117096;27;20119;-66
2023/08/01 03:10:09;;;;;;;12.48;4.45;;;15.10;99.90;;;;;;5119355;27;20109;-66
2023/08/01 03:12:37;;;;;;;11.98;4.53;;;15.10;99.90;;;;;;5121274;27;20481;-66
2023/08/01 03:15:03;;;;;;;10.23;4.10;;;15.10;99.90;;;;;;5102805;27;20116;-66
2023/08/01 03:17:29;;;;;;;13.30;4.47;;;15.10;99.90;;;;;;5104680;27;20053;-65
2023/08/01 03:19:54;;;;;;;10.95;4.40;;;15.10;99.90;;;;;;5123681;27;20046;-66
2023/08/01 03:22:20;;;;;;;12.75;4.90;;;15.10;99.90;;;;;;5118851;27;20078;-66
2023/08/01 03:24:46;;;;;;;13.93;4.90;;;15.10;99.90;;;;;;5120148;27;20039;-66
2023/08/01 03:27:11;;;;;;;12.93;4.60;;;15.00;99.90;;;;;;5107936;27;20043;-66
2023/08/01 03:29:37;;;;;;;9.30;4.00;;;15.00;99.90;;;;;;5104772;27;21696;-66
2023/08/01 03:32:03;;;;;;;7.13;3.00;;;15.00;99.90;;;;;;5126855;27;20030;-66
2023/08/01 03:34:28;;;;;;;3.40;1.92;;;15.00;99.90;;;;;;5122425;27;20045;-66
2023/08/01 03:36:54;;;;;;;3.40;1.35;;;14.90;99.90;;;;;;5129629;27;20115;-66
2023/08/01 03:39:20;;;;;;;2.40;1.23;;;14.80;99.90;;;;;;5122644;27;20049;-66
2023/08/01 03:41:45;;;;;;;2.53;1.33;;;14.80;99.90;;;;;;5140468;27;20066;-66
2023/08/01 03:44:11;;;;;;;6.30;2.35;;;14.70;99.90;;;;;;5139819;27;20046;-67
2023/08/01 03:46:37;;;;;;;4.25;1.20;;;14.70;99.90;;;;;;5120284;27;20095;-66
2023/08/01 03:49:02;;;;;;;4.20;1.30;;;14.70;99.90;;;;;;5119391;27;20064;-66
2023/08/01 03:51:28;;;;;;;2.85;1.20;;;14.60;99.90;;;;;;5116820;27;20098;-67
2023/08/01 03:53:53;;;;;;;1.67;1.20;;;14.50;99.90;;;;;;5120338;27;21619;-66
2023/08/01 03:56:19;;;;;;;3.90;1.20;;;14.50;99.90;;;;;;5116058;28;20039;-66
2023/08/01 03:58:45;;;;;;;1.70;1.08;;;14.50;99.90;;;;;;5119468;27;20065;-66
2023/08/01 04:01:11;;;;;;;1.65;1.00;;;14.50;99.90;;;;;;5121711;27;20091;-66
2023/08/01 04:03:37;;;;;;;1.90;1.10;;;14.50;99.90;;;;;;5100374;27;20405;-67
2023/08/01 04:06:03;;;;;;;4.55;1.45;;;14.50;99.90;;;;;;5122807;27;20157;-66
2023/08/01 04:08:28;;;;;;;2.90;1.10;;;14.40;99.90;;;;;;5118860;27;20027;-67
2023/08/01 04:10:54;;;;;;;2.40;1.20;;;14.40;99.90;;;;;;5121697;27;20047;-66
2023/08/01 04:13:20;;;;;;;2.17;1.40;;;14.40;99.90;;;;;;5124621;27;20075;-66
2023/08/01 04:15:45;;;;;;;3.38;1.23;;;14.40;99.90;;;;;;5120991;27;20051;-66
2023/08/01 04:18:11;;;;;;;2.20;1.10;;;14.40;99.90;;;;;;5119700;27;20035;-66
2023/08/01 04:20:36;;;;;;;2.20;1.35;;;14.40;99.90;;;;;;5095158;28;20100;-66
2023/08/01 04:23:02;;;;;;;3.42;1.00;;;14.40;99.90;;;;;;5099108;28;20101;-66
2023/08/01 04:25:28;;;;;;;2.42;1.20;;;14.40;99.90;;;;;;5096608;28;20062;-66
2023/08/01 04:27:53;;;;;;;3.30;1.30;;;14.40;99.90;;;;;;5110032;28;20031;-66
2023/08/01 04:30:19;;;;;;;3.17;1.20;;;14.40;99.90;;;;;;5107294;28;20044;-67
2023/08/01 04:32:45;;;;;;;2.58;1.23;;;14.40;99.90;;;;;;5107208;28;20084;-67
2023/08/01 04:35:10;;;;;;;2.25;1.13;;;14.40;99.90;;;;;;5107438;28;20047;-66
2023/08/01 04:37:36;;;;;;;3.42;1.33;;;14.50;99.90;;;;;;5086949;28;20047;-66
2023/08/01 04:40:02;;;;;;;3.13;1.50;;;14.50;99.90;;;;;;5108520;28;20039;-66
2023/08/01 04:42:29;;;;;;;2.53;1.45;;;14.50;99.90;;;;;;5100882;28;20039;-66
2023/08/01 04:44:54;;;;;;;4.47;1.50;;;14.50;99.90;;;;;;5108223;28;20070;-66
2023/08/01 04:47:21;;;;;;;2.40;1.50;;;14.60;99.90;;;;;;5108100;28;20075;-66
2023/08/01 04:49:46;;;;;;;1.98;1.30;;;14.60;99.90;;;;;;5106262;28;20038;-66
2023/08/01 04:52:12;;;;;;;2.47;1.65;;;14.60;99.90;;;;;;5108446;28;20118;-66
2023/08/01 04:54:38;;;;;;;2.60;1.70;;;14.70;99.90;;;;;;5106833;28;20451;-67
2023/08/01 04:57:04;;;;;;;4.25;1.80;;;14.70;99.90;;;;;;5107589;28;20067;-66
2023/08/01 04:59:30;;;;;;;3.95;1.70;;;14.70;99.90;;;;;;5116387;28;20047;-67
2023/08/01 05:01:56;;;;;;;4.15;1.77;;;14.70;99.90;;;;;;5125539;27;20127;-67
2023/08/01 05:04:22;;;;;;;4.63;1.80;;;14.70;99.90;;;;;;5111532;28;20059;-66
2023/08/01 05:06:47;;;;;;;5.20;1.90;;;14.80;99.90;;;;;;5112214;28;20096;-66
2023/08/01 05:09:13;;;;;;;4.47;1.80;;;14.80;99.90;;;;;;5111578;27;20090;-66
2023/08/01 05:11:39;;;;;;;3.05;1.73;;;14.80;99.90;;;;;;5112045;28;20035;-66
2023/08/01 05:14:05;;;;;;;4.18;1.50;;;14.80;99.90;;;;;;5112229;28;20484;-66
2023/08/01 05:16:31;;;;;;;2.90;1.67;;;14.90;99.90;;;;;;5112369;28;20386;-66
2023/08/01 05:18:56;;;;;;;4.32;1.80;;;14.90;99.90;;;;;;5112332;28;20067;-66
2023/08/01 05:21:22;;;;;;;4.30;1.80;;;14.90;99.90;;;;;;5112108;28;20044;-66
2023/08/01 05:23:48;;;;;;;4.07;1.80;;;14.90;99.90;;;;;;5112550;28;20043;-66
2023/08/01 05:26:13;;;;;;;3.55;2.00;;;14.80;99.90;;;;;;5113399;28;20164;-66
2023/08/01 05:28:39;;;;;;;3.70;1.88;;;14.80;99.90;;;;;;5112039;28;20031;-65
2023/08/01 05:31:04;;;;;;;4.43;2.10;;;14.80;99.90;;;;;;5116147;27;20038;-66
2023/08/01 05:33:30;;;;;;;3.15;2.25;;;14.80;99.90;;;;;;5133605;27;20505;-66
2023/08/01 05:35:56;;;;;;;6.07;2.10;;;14.80;99.90;;;;;;5132786;27;20053;-66
2023/08/01 05:38:21;;;;;;;5.35;2.05;;;14.80;99.90;;;;;;5132259;27;20149;-66
2023/08/01 05:40:47;;;;;;;5.10;1.90;;;14.70;99.90;;;;;;5131857;27;20512;-66
2023/08/01 05:43:12;;;;;;;3.53;1.50;;;14.70;99.90;;;;;;5132595;27;20039;-67
2023/08/01 05:45:38;;;;;;;3.28;1.23;;;14.70;99.90;;;;;;5133639;27;20070;-66
2023/08/01 05:48:04;;;;;;;3.58;1.75;;;14.70;99.90;;;;;;5132515;27;20122;-66
2023/08/01 05:50:30;;;;;;;3.13;1.80;;;14.70;99.90;;;;;;5133430;27;20060;-66
2023/08/01 05:52:55;;;;;;;3.42;1.92;;;14.70;99.90;;;;;;5132278;27;20096;-66
2023/08/01 05:55:21;;;;;;;4.05;1.60;;;14.60;99.90;;;;;;5132265;27;20363;-66
2023/08/01 05:57:48;;;;;;;2.22;1.50;;;14.60;99.90;;;;;;5114979;27;20051;-66
2023/08/01 06:00:15;;;;;;;2.85;1.67;;;14.60;99.90;;;;;;5133408;27;20397;-66
2023/08/01 06:02:41;;;;;;;5.00;1.73;;;14.60;99.90;;;;;;5115223;27;20044;-66
2023/08/01 06:05:06;;;;;;;4.75;1.67;;;14.70;99.90;;;;;;5111444;28;20039;-66
2023/08/01 06:07:32;;;;;;;4.00;1.85;;;14.70;99.90;;;;;;5111151;28;20490;-66
2023/08/01 06:09:58;;;;;;;4.43;1.73;;;14.80;99.90;;;;;;5111467;28;20040;-66
2023/08/01 06:12:23;;;;;;;7.00;2.00;;;14.80;99.90;;;;;;5110920;28;20036;-66
2023/08/01 06:14:50;;;;;;;4.45;2.20;;;14.80;99.90;;;;;;5111215;28;20086;-65
2023/08/01 06:17:16;;;;;;;4.15;1.77;;;14.90;99.90;;;;;;5111256;28;20050;-66
2023/08/01 06:19:42;;;;;;;2.40;1.80;;;15.00;99.90;;;;;;5110729;28;20055;-65
2023/08/01 06:22:08;;;;;;;4.80;2.17;;;15.00;99.90;;;;;;5112592;28;20035;-67
2023/08/01 06:24:33;;;;;;;4.28;1.77;;;15.00;99.90;;;;;;5111106;28;20039;-66
2023/08/01 06:26:59;;;;;;;2.85;2.05;;;15.10;99.90;;;;;;5111404;28;20036;-66
2023/08/01 06:29:25;;;;;;;4.35;1.85;;;15.10;99.90;;;;;;5111179;28;20114;-66
2023/08/01 06:31:50;;;;;;;4.68;2.08;;;15.10;99.90;;;;;;5110838;28;20035;-66
2023/08/01 06:34:16;;;;;;;5.95;2.00;;;15.10;99.90;;;;;;5110780;28;20047;-65
2023/08/01 06:36:42;;;;;;;3.53;2.00;;;15.10;99.90;;;;;;5111979;27;20051;-66
2023/08/01 06:39:08;;;;;;;6.95;2.35;;;15.20;99.90;;;;;;5110705;28;20082;-66
2023/08/01 06:41:33;;;;;;;4.60;1.90;;;15.30;99.90;;;;;;5111928;28;20115;-66
2023/08/01 06:43:59;;;;;;;5.95;2.20;;;15.30;99.90;;;;;;5110993;28;20036;-66
2023/08/01 06:46:25;;;;;;;3.25;1.75;;;15.30;99.90;;;;;;5110671;28;20046;-66
2023/08/01 06:48:50;;;;;;;4.53;1.92;;;15.20;99.90;;;;;;5110475;28;20096;-66
2023/08/01 06:51:16;;;;;;;6.65;2.35;;;15.20;99.90;;;;;;5110774;28;20474;-66
2023/08/01 06:53:42;;;;;;;5.03;2.00;;;15.20;99.90;;;;;;5110300;28;20046;-66
2023/08/01 06:56:08;;;;;;;5.68;1.90;;;15.20;99.90;;;;;;5124493;27;20035;-67
2023/08/01 06:58:33;;;;;;;4.35;1.90;;;15.30;99.90;;;;;;5130781;27;20043;-66
2023/08/01 07:00:59;;;;;;;3.42;1.65;;;15.40;99.90;;;;;;5130736;27;20039;-66
2023/08/01 07:03:24;;;;;;;7.18;1.80;;;15.50;99.90;;;;;;5130832;27;20054;-66
2023/08/01 07:05:50;;;;;;;8.40;2.08;;;15.60;99.90;;;;;;5130542;27;20457;-67
2023/08/01 07:08:16;;;;;;;3.75;1.90;;;15.70;99.90;;;;;;5130998;27;20031;-66
2023/08/01 07:10:41;;;;;;;8.32;2.60;;;15.70;99.90;;;;;;5130596;27;20058;-66
2023/08/01 07:13:07;;;;;;;5.10;1.60;;;15.70;99.90;;;;;;5130778;27;20053;-66
2023/08/01 07:15:33;;;;;;;4.32;1.77;;;15.80;99.90;;;;;;5130498;27;20035;-66
2023/08/01 07:17:59;;;;;;;4.82;1.83;;;16.00;99.90;;;;;;5130378;27;20110;-66
2023/08/01 07:20:25;;;;;;;4.30;1.95;;;16.00;99.90;;;;;;5147625;27;20067;-66
2023/08/01 07:22:50;;;;;;;7.63;1.85;;;16.00;99.90;;;;;;5133520;27;20485;-66
2023/08/01 07:25:17;;;;;;;4.45;1.60;;;16.00;99.90;;;;;;5133565;27;20046;-66
2023/08/01 07:27:42;;;;;;;3.80;1.45;;;16.10;99.90;;;;;;5134125;27;20549;-66
2023/08/01 07:30:10;;;;;;;7.68;2.00;;;16.10;99.90;;;;;;5133215;27;20126;-65
2023/08/01 07:32:37;;;;;;;5.35;1.58;;;16.10;99.90;;;;;;5134012;27;20050;-66
2023/08/01 07:35:04;;;;;;;5.30;1.60;;;16.10;99.90;;;;;;5116112;27;20054;-66
2023/08/01 07:37:29;;;;;;;5.55;1.60;;;16.20;99.90;;;;;;5133697;27;20039;-66
2023/08/01 07:39:56;;;;;;;4.05;1.50;;;16.10;99.90;;;;;;5133457;27;20552;-66
2023/08/01 07:42:22;;;;;;;5.57;1.40;;;16.10;99.90;;;;;;5133880;27;20430;-66
2023/08/01 07:44:47;;;;;;;6.65;1.45;;;16.00;99.90;;;;;;5133383;27;20038;-66
2023/08/01 07:47:13;;;;;;;5.60;1.50;;;16.00;99.90;;;;;;5133284;27;20442;-66
2023/08/01 07:49:39;;;;;;;7.00;1.80;;;15.80;99.90;;;;;;5151876;27;20082;-66
2023/08/01 07:52:05;;;;;;;7.00;1.70;;;15.70;99.90;;;;;;5097422;27;20146;-66
2023/08/01 07:54:30;;;;;;;4.35;1.45;;;15.70;99.90;;;;;;5113018;27;20525;-66
2023/08/01 07:56:56;;;;;;;6.88;1.83;;;15.70;99.90;;;;;;5112811;27;20374;-66
2023/08/01 07:59:22;;;;;;;8.32;2.30;;;15.60;99.90;;;;;;5112740;27;20053;-66
2023/08/01 08:01:48;;;;;;;8.80;2.10;;;15.60;99.90;;;;;;5113044;27;20494;-66
2023/08/01 08:04:14;;;;;;;8.57;1.80;;;15.60;99.90;;;;;;5131025;27;20035;-66
2023/08/01 08:06:40;;;;;;;7.88;1.95;;;15.60;99.90;;;;;;5113047;27;20485;-66
2023/08/01 08:09:06;;;;;;;8.00;1.98;;;15.50;99.90;;;;;;5112707;27;20058;-66
2023/08/01 08:11:33;;;;;;;6.47;2.13;;;15.50;99.90;;;;;;5130914;27;20034;-66
2023/08/01 08:13:59;;;;;;;6.70;2.00;;;15.40;99.90;;;;;;5133316;27;20114;-66
2023/08/01 08:16:25;;;;;;;10.45;3.10;;;15.40;99.90;;;;;;5133181;27;20046;-65
2023/08/01 08:18:51;;;;;;;9.18;2.55;;;15.40;99.90;;;;;;5133416;27;20104;-66
2023/08/01 08:21:17;;;;;;;12.20;2.85;;;15.30;99.90;;;;;;5132927;27;20058;-66
2023/08/01 08:23:42;;;;;;;10.63;2.95;;;15.30;99.90;;;;;;5133435;27;20049;-66
2023/08/01 08:26:08;;;;;;;10.20;3.20;;;15.30;99.90;;;;;;5133099;27;20035;-67
2023/08/01 08:28:34;;;;;;;8.90;2.72;;;15.30;99.90;;;;;;5133079;27;20035;-65
2023/08/01 08:31:02;;;;;;;10.27;3.10;;;15.30;99.90;;;;;;5133138;27;20118;-66
2023/08/01 08:33:28;;;;;;;11.95;3.25;;;15.40;99.90;;;;;;5133298;27;20034;-66
2023/08/01 08:35:54;;;;;;;13.80;3.30;;;15.40;99.90;;;;;;5135665;27;20085;-66
2023/08/01 08:38:19;;;;;;;9.55;3.30;;;15.40;99.90;;;;;;5119158;27;20573;-66
2023/08/01 08:41:00;;;;;;;12.70;3.13;;;15.50;99.90;;;;;;5136983;27;20271;-66
2023/08/01 08:43:26;;;;;;;11.43;3.35;;;15.50;99.90;;;;;;5129116;27;20043;-66
2023/08/01 08:45:56;;;;;;;10.25;3.90;;;15.60;99.90;;;;;;5116404;27;20505;-66
2023/08/01 08:48:22;;;;;;;11.45;3.72;;;15.60;99.90;;;;;;5098917;27;20045;-66
2023/08/01 08:50:48;;;;;;;10.48;3.67;;;15.70;99.90;;;;;;5116495;27;20509;-66
2023/08/01 08:53:15;;;;;;;12.18;4.30;;;15.80;99.90;;;;;;5116343;27;20539;-66
2023/08/01 08:55:41;;;;;;;14.20;4.47;;;15.80;99.90;;;;;;5116217;27;20082;-66
2023/08/01 08:58:08;;;;;;;9.85;3.00;;;15.80;99.90;;;;;;5116323;27;20042;-66
2023/08/01 09:00:35;;;;;;;10.68;3.25;;;15.80;99.90;;;;;;5116102;27;20027;-66
2023/08/01 09:03:01;;;;;;;9.23;2.95;;;15.70;99.90;;;;;;5116277;27;20127;-66
2023/08/01 09:05:30;;;;;;;9.60;2.97;;;15.60;99.90;;;;;;5115889;27;20122;-66
2023/08/01 09:08:00;;;;;;;7.28;2.60;;;15.60;99.90;;;;;;5115973;27;20071;-66
2023/08/01 09:10:26;;;;;;;6.45;2.90;;;15.60;99.90;;;;;;5115778;27;20493;-66
2023/08/01 09:12:52;;;;;;;6.70;2.20;;;15.50;99.90;;;;;;5134337;27;20038;-66
2023/08/01 09:15:18;;;;;;;6.30;2.70;;;15.40;99.90;;;;;;5115622;27;20126;-66
2023/08/01 09:17:56;;;;;;;6.00;2.15;;;15.30;99.90;;;;;;5116010;27;20118;-66
2023/08/01 09:20:22;;;;;;;6.30;2.10;;;15.20;99.90;;;;;;5115312;27;20047;-66
2023/08/01 09:22:47;;;;;;;6.38;2.05;;;15.10;99.90;;;;;;5115562;27;20047;-66
2023/08/01 09:25:13;;;;;;;8.77;2.30;;;15.10;99.90;;;;;;5115862;27;20501;-66
2023/08/01 09:27:39;;;;;;;9.95;3.20;;;15.10;99.90;;;;;;5115801;27;20419;-66
2023/08/01 09:30:15;;;;;;;5.70;2.45;;;15.00;99.90;;;;;;5115628;27;20124;-65
2023/08/01 09:32:51;;;;;;;6.80;2.53;;;15.00;99.90;;;;;;5134702;27;20051;-66
2023/08/01 09:35:17;;;;;;;6.50;2.42;;;15.00;99.90;;;;;;5135865;27;20095;-66
2023/08/01 09:37:43;;;;;;;9.82;3.28;;;15.00;99.90;;;;;;5135842;27;20046;-66
2023/08/01 09:40:10;;;;;;;9.43;3.03;;;15.00;99.90;;;;;;5124165;27;20118;-67
2023/08/01 09:42:39;;;;;;;8.65;2.80;;;15.10;99.90;;;;;;5115519;27;20031;-66
2023/08/01 09:45:15;;;;;;;9.00;2.90;;;15.10;99.90;;;;;;5115404;27;20039;-66
2023/08/01 09:47:43;;;;;;;8.48;3.38;;;15.20;99.90;;;;;;5114136;27;20031;-66
2023/08/01 09:50:19;;;;;;;9.05;3.83;;;15.20;99.90;;;;;;5123949;27;20041;-66
2023/08/01 09:52:52;;;;;;;11.65;3.10;;;15.20;99.90;;;;;;5097923;27;20107;-66
2023/08/01 09:55:31;;;;;;;7.03;3.10;;;15.20;99.90;;;;;;5133440;27;20046;-66
2023/08/01 09:57:58;;;;;;;8.77;3.10;;;15.20;99.90;;;;;;5115094;27;20087;-67
2023/08/01 10:00:26;;;;;;;8.90;3.10;;;15.20;99.90;;;;;;5097667;27;20047;-68
2023/08/01 10:02:53;;;;;;;9.45;3.17;;;15.30;99.90;;;;;;5126294;27;20107;-67
2023/08/01 10:05:20;;;;;;;6.60;2.97;;;15.30;99.90;;;;;;5119173;27;20031;-66
2023/08/01 10:07:48;;;;;;;9.77;3.40;;;15.30;99.90;;;;;;5129407;27;20125;-66
2023/08/01 10:10:16;;;;;;;5.65;2.63;;;15.40;99.90;;;;;;5133058;27;20090;-66
2023/08/01 10:12:45;;;;;;;7.20;2.35;;;15.50;99.90;;;;;;5134473;27;20034;-67
2023/08/01 10:15:11;;;;;;;7.13;2.30;;;15.50;99.90;;;;;;5134436;27;20042;-67
2023/08/01 10:17:37;;;;;;;9.55;2.83;;;15.60;99.90;;;;;;5134160;27;20516;-67
2023/08/01 10:20:04;;;;;;;7.25;2.63;;;15.80;99.90;;;;;;5100271;27;20051;-67
2023/08/01 10:22:31;;;;;;;7.63;3.47;;;16.00;99.90;;;;;;5113554;27;20045;-66
2023/08/01 10:24:57;;;;;;;7.70;3.00;;;16.30;99.90;;;;;;5130583;27;20646;-67
2023/08/01 10:27:23;;;;;;;9.35;2.65;;;16.60;99.90;;;;;;5114342;27;20034;-67
2023/08/01 10:30:00;;;;;;;5.30;2.22;;;16.90;99.90;;;;;;5144507;27;20062;-66
2023/08/01 10:32:33;;;;;;;5.25;1.92;;;17.00;99.90;;;;;;5127280;27;20034;-65
2023/08/01 10:34:59;;;;;;;7.30;1.90;;;17.10;99.90;;;;;;5122633;27;20764;-67
2023/08/01 10:37:25;;;;;;;6.30;1.85;;;17.00;99.90;;;;;;5141527;27;20027;-66
2023/08/01 10:40:00;;;;;;;6.72;2.13;;;16.90;99.90;;;;;;5100327;27;20055;-67
2023/08/01 10:42:46;;;;;;;5.07;1.75;;;16.60;99.90;;;;;;5119173;27;20039;-67
2023/08/01 10:45:23;;;;;;;5.72;2.03;;;16.60;99.90;;;;;;5126621;27;20426;-67
2023/08/01 10:47:49;;;;;;;7.10;1.80;;;16.60;99.90;;;;;;5125432;27;20046;-67
2023/08/01 10:50:16;;;;;;;8.35;2.03;;;16.60;99.90;;;;;;5106614;27;20070;-67
2023/08/01 10:52:42;;;;;;;5.97;1.63;;;16.50;99.90;;;;;;5122274;27;20761;-67
2023/08/01 10:55:09;;;;;;;4.40;1.70;;;16.50;99.90;;;;;;5126322;27;20046;-67
2023/08/01 10:57:39;;;;;;;5.15;1.50;;;16.30;99.90;;;;;;5123009;27;20039;-68
2023/08/01 11:00:11;;;;;;;5.53;1.48;;;16.20;99.90;;;;;;5122662;27;20034;-67
2023/08/01 11:02:37;;;;;;;;;;;16.20;99.90;;;;;;5123338;27;20058;-67
2023/08/01 11:05:05;;;;;;;4.95;1.65;;;16.10;99.90;;;;;;5120030;27;20015;-67
2023/08/01 11:07:31;;;;;;;7.32;1.92;;;16.10;99.90;;;;;;5128636;27;20033;-68
2023/08/01 11:10:04;;;;;;;6.28;1.45;;;16.10;99.90;;;;;;5139438;27;20050;-67
2023/08/01 11:12:33;;;;;;;6.15;1.67;;;16.40;99.90;;;;;;5105659;27;20099;-67
2023/08/01 11:15:00;;;;;;;8.32;1.75;;;16.60;99.90;;;;;;5099684;27;20389;-67
2023/08/01 11:17:26;;;;;;;7.13;1.50;;;16.80;99.90;;;;;;5114736;27;20565;-69
2023/08/01 11:20:11;;;;;;;5.40;1.27;;;16.80;99.90;;;;;;5107357;27;20051;-70
2023/08/01 11:23:21;;;;;;;6.03;1.40;;;16.60;99.90;;;;;;5114930;27;20032;-70
2023/08/01 11:25:49;;;;;;;5.88;1.75;;;16.50;99.90;;;;;;5037173;28;20041;-69
2023/08/01 11:28:17;;;;;;;5.50;1.83;;;16.40;99.90;;;;;;5033918;28;20055;-68
2023/08/01 11:30:45;;;;;;;5.60;1.60;;;16.40;99.90;;;;;;5045049;28;20124;-68
2023/08/01 11:33:21;;;;;;;6.45;1.52;;;16.60;99.90;;;;;;5019670;28;20178;-67
2023/08/01 11:35:57;;;;;;;8.32;1.65;;;16.60;99.90;;;;;;5046674;28;20044;-68
2023/08/01 11:38:23;;;;;;;7.72;2.00;;;16.70;99.90;;;;;;5047415;28;20044;-67
2023/08/01 11:40:51;;;;;;;4.95;1.63;;;16.70;99.90;;;;;;5031084;28;20078;-71
2023/08/01 11:43:17;;;;;;;4.30;1.45;;;16.70;99.90;;;;;;5030906;28;20041;-67
2023/08/01 11:45:50;;;;;;;5.60;1.65;;;16.60;99.90;;;;;;5049819;28;20041;-67
2023/08/01 11:48:16;;;;;;;4.88;1.85;;;16.70;99.90;;;;;;5050136;28;20048;-69
2023/08/01 11:50:41;;;;;;;6.15;1.73;;;16.90;99.90;;;;;;5047316;28;20098;-67
2023/08/01 11:53:18;;;;;;;4.20;1.65;;;16.90;99.90;;;;;;5042956;28;20123;-69
2023/08/01 11:55:44;;;;;;;6.28;1.75;;;16.90;99.90;;;;;;5078321;27;20046;-68
2023/08/01 11:58:10;;;;;;;5.70;1.80;;;16.90;99.90;;;;;;5117506;27;20078;-68
2023/08/01 12:00:36;;;;;;;7.75;2.70;;;16.90;99.90;;;;;;5109641;27;20062;-66
2023/08/01 12:03:07;;;;;;;7.40;2.03;;;16.80;99.90;;;;;;5125234;27;20039;-68
2023/08/01 12:05:33;;;;;;;5.05;1.85;;;16.60;99.90;;;;;;5124040;27;20477;-67
2023/08/01 12:08:12;;;;;;;7.57;2.50;;;16.80;99.90;;;;;;5128734;27;20042;-67
2023/08/01 12:10:42;;;;;;;12.93;2.72;;;17.10;99.90;;;;;;5131968;27;20050;-68
2023/08/01 12:13:22;;;;;;;8.30;2.38;;;17.50;99.90;;;;;;5125733;27;20110;-67
2023/08/01 12:15:49;;;;;;;6.15;1.60;;;17.60;99.90;;;;;;5121567;27;20074;-67
2023/08/01 12:18:25;;;;;;;5.25;2.00;;;17.70;99.90;;;;;;5126424;27;20043;-66
2023/08/01 12:20:51;;;;;;;4.25;1.42;;;17.80;99.90;;;;;;5122625;27;20051;-68
2023/08/01 12:23:17;;;;;;;6.28;1.48;;;18.00;99.90;;;;;;5108183;27;20388;-67
2023/08/01 12:25:43;;;;;;;6.55;1.40;;;18.20;99.90;;;;;;5108656;27;20406;-64
2023/08/01 12:28:09;;;;;;;5.15;1.65;;;18.40;99.90;;;;;;5128847;27;20048;-64
2023/08/01 12:30:35;;;;;;;4.82;1.50;;;18.70;99.90;;;;;;5123919;27;20042;-64
2023/08/01 12:33:00;;;;;;;4.82;1.80;;;18.80;99.90;;;;;;5117800;27;20058;-64
2023/08/01 12:35:27;;;;;;;6.40;1.58;;;18.80;99.90;;;;;;5127276;27;20055;-64
2023/08/01 12:37:53;;;;;;;5.50;1.60;;;18.70;99.90;;;;;;5128168;27;20497;-64
2023/08/01 12:40:19;;;;;;;6.30;1.73;;;18.60;99.90;;;;;;5118547;27;20103;-64
2023/08/01 12:42:46;;;;;;;7.35;1.40;;;18.40;99.90;;;;;;5113073;27;20031;-64